Terminal Aerodrome Forecast
Issued by NWS Grand Forks, ND

Home | Current Version | Previous Version | Graphics & Text | Print | Product List | Glossary On
Versions: 1 2 3 4 5 6 7 8 9 10 11 12 13 14 15 16 17 18
000
FTUS43 KFGF 190900 AAA
TAFFAR
TAF AMD
KFAR 190917Z 1909/2006 25005KT P6SM SKC
      TEMPO 1910/1913 5SM BR
     FM191600 VRB05KT P6SM SCT040
     FM200100 VRB05KT P6SM SKC=

USA.gov is the U.S. government's official web portal to all federal, state and local government web resources and services.